Terminal Aerodrome Forecast
Issued by NWS Amarillo, TX

Home | Current Version | Previous Version | Text Only | Print | Product List | Glossary On
Versions: 1 2 3 4 5 6 7 8 9 10 11 12 13
000
FTUS44 KAMA 021100
TAFGUY
TAF
KGUY 021127Z 0212/0312 19010KT P6SM FEW250
     FM021700 18015KT P6SM FEW250
     FM030200 19011KT P6SM SCT250=

USA.gov is the U.S. government's official web portal to all federal, state and local government web resources and services.